Time;durP1;ratioP1;P1;durP2;ratioP2;P2;SDS_P1;SDS_P2;PMS_P1;PMS_P2;Temp;Humidity;BMP_temperature;BMP_pressure;BME280_temperature;BME280_humidity;BME280_pressure;Samples;Min_cycle;Max_cycle;Signal;HPM_P1;HPM_P2
2023/06/14 00:01:25;;;;;;;5.65;1.20;;;18.90;99.90;;;;;;4978447;28;20057;-34
2023/06/14 00:03:50;;;;;;;4.82;1.08;;;18.80;99.90;;;;;;4963181;28;20050;-35
2023/06/14 00:06:17;;;;;;;4.07;1.50;;;18.80;99.90;;;;;;4979915;28;20479;-35
2023/06/14 00:08:42;;;;;;;2.67;1.15;;;18.70;99.90;;;;;;4980235;28;20054;-35
2023/06/14 00:11:08;;;;;;;2.35;1.10;;;18.70;99.90;;;;;;4977046;28;20221;-35
2023/06/14 00:13:34;;;;;;;5.60;0.98;;;18.70;99.90;;;;;;4983916;28;20046;-34
2023/06/14 00:16:00;;;;;;;4.43;1.10;;;18.60;99.90;;;;;;4989248;28;20045;-37
2023/06/14 00:18:29;;;;;;;6.10;1.17;;;18.60;99.90;;;;;;4988412;28;20058;-35
2023/06/14 00:20:55;;;;;;;2.17;0.90;;;18.50;99.90;;;;;;4983181;28;20073;-35
2023/06/14 00:23:20;;;;;;;4.50;1.08;;;18.40;99.90;;;;;;4982469;28;20050;-35
2023/06/14 00:25:46;;;;;;;5.18;1.00;;;18.40;99.90;;;;;;4987271;28;20054;-35
2023/06/14 00:28:12;;;;;;;2.17;0.80;;;18.30;99.90;;;;;;4989172;28;20064;-35
2023/06/14 00:30:37;;;;;;;2.95;0.95;;;18.30;99.90;;;;;;4984442;28;20055;-35
2023/06/14 00:33:04;;;;;;;2.13;0.70;;;18.20;99.90;;;;;;4982113;28;20058;-35
2023/06/14 00:35:29;;;;;;;8.35;1.13;;;18.20;99.90;;;;;;4985834;28;20065;-35
2023/06/14 00:37:55;;;;;;;3.40;0.95;;;18.10;99.90;;;;;;4980504;28;20491;-35
2023/06/14 00:40:21;;;;;;;4.05;1.10;;;18.10;99.90;;;;;;4980016;28;20450;-35
2023/06/14 00:42:47;;;;;;;3.92;1.10;;;18.00;99.90;;;;;;4987146;28;20046;-34
2023/06/14 00:45:13;;;;;;;4.28;1.08;;;18.00;99.90;;;;;;4981352;28;20097;-35
2023/06/14 00:47:41;;;;;;;3.95;0.98;;;17.90;99.90;;;;;;4982455;28;20054;-35
2023/06/14 00:50:07;;;;;;;2.75;0.90;;;17.90;99.90;;;;;;4982716;28;20549;-35
2023/06/14 00:52:34;;;;;;;4.60;1.27;;;17.90;99.90;;;;;;4987819;28;20046;-35
2023/06/14 00:55:00;;;;;;;2.13;0.80;;;17.80;99.90;;;;;;4979450;28;20476;-35
2023/06/14 00:57:27;;;;;;;6.97;1.23;;;17.80;99.90;;;;;;4986158;28;20046;-35
2023/06/14 00:59:52;;;;;;;3.08;0.90;;;17.70;99.90;;;;;;4985993;28;20511;-35
2023/06/14 01:02:18;;;;;;;5.13;1.00;;;17.60;99.90;;;;;;4982163;28;20058;-35
2023/06/14 01:04:49;;;;;;;3.05;0.80;;;17.60;99.90;;;;;;4980779;28;20504;-35
2023/06/14 01:07:30;;;;;;;3.53;1.10;;;17.50;99.90;;;;;;4984257;28;20050;-35
2023/06/14 01:10:25;;;;;;;6.40;1.20;;;17.50;99.90;;;;;;4983638;28;20055;-34
2023/06/14 01:13:01;;;;;;;2.17;0.90;;;17.40;99.90;;;;;;4966764;28;20109;-34
2023/06/14 01:15:30;;;;;;;3.58;0.90;;;17.40;99.90;;;;;;4983935;28;20054;-35
2023/06/14 01:17:57;;;;;;;2.47;1.00;;;17.30;99.90;;;;;;4985767;28;20454;-35
2023/06/14 01:20:32;;;;;;;5.20;0.80;;;17.30;99.90;;;;;;4984865;28;20163;-34
2023/06/14 01:22:58;;;;;;;3.65;0.95;;;17.30;99.90;;;;;;4981450;28;20132;-34
2023/06/14 01:25:25;;;;;;;3.17;1.38;;;17.20;99.90;;;;;;4983283;28;20050;-34
2023/06/14 01:27:55;;;;;;;2.90;0.80;;;17.20;99.90;;;;;;4983806;28;20061;-34
2023/06/14 01:30:22;;;;;;;4.13;1.00;;;17.20;99.90;;;;;;4976967;28;20050;-35
2023/06/14 01:32:50;;;;;;;2.35;0.80;;;17.10;99.90;;;;;;4982377;28;20058;-34
2023/06/14 01:35:15;;;;;;;2.63;1.00;;;17.10;99.90;;;;;;4976981;28;20109;-34
2023/06/14 01:37:42;;;;;;;2.58;0.90;;;17.00;99.90;;;;;;4980662;28;20904;-35
2023/06/14 01:40:10;;;;;;;2.35;1.15;;;17.00;99.90;;;;;;4985056;28;20058;-35
2023/06/14 01:42:38;;;;;;;2.10;0.70;;;16.90;99.90;;;;;;4987466;28;20062;-35
2023/06/14 01:45:05;;;;;;;3.10;1.20;;;16.90;99.90;;;;;;4974429;28;21483;-35
2023/06/14 01:47:32;;;;;;;5.53;1.05;;;16.90;99.90;;;;;;4977982;28;20053;-35
2023/06/14 01:49:58;;;;;;;4.68;0.98;;;16.80;99.90;;;;;;4983572;28;20529;-35
2023/06/14 01:52:24;;;;;;;2.72;1.02;;;16.80;99.90;;;;;;4980577;28;20090;-35
2023/06/14 01:54:51;;;;;;;2.10;0.90;;;16.80;99.90;;;;;;4978274;28;20137;-35
2023/06/14 01:57:16;;;;;;;4.88;0.90;;;16.70;99.90;;;;;;4976149;28;20050;-34
2023/06/14 01:59:42;;;;;;;5.38;1.10;;;16.60;99.90;;;;;;4977970;28;20525;-35
2023/06/14 02:02:08;;;;;;;2.58;0.80;;;16.60;99.90;;;;;;4977735;28;20058;-35
2023/06/14 02:04:34;;;;;;;3.20;0.90;;;16.60;99.90;;;;;;4975435;28;20117;-35
2023/06/14 02:07:00;;;;;;;3.85;1.00;;;16.60;99.90;;;;;;4981199;28;20054;-34
2023/06/14 02:09:26;;;;;;;3.88;1.13;;;16.50;99.90;;;;;;4974690;28;20437;-35
2023/06/14 02:11:52;;;;;;;4.75;1.00;;;16.50;99.90;;;;;;4974984;28;20054;-35
2023/06/14 02:14:18;;;;;;;2.63;1.10;;;16.50;99.90;;;;;;4973691;28;20125;-35
2023/06/14 02:16:48;;;;;;;1.27;0.80;;;16.50;99.90;;;;;;4977878;28;20517;-35
2023/06/14 02:19:17;;;;;;;4.82;0.90;;;16.40;99.90;;;;;;4979139;28;20133;-35
2023/06/14 02:21:44;;;;;;;3.88;1.10;;;16.40;99.90;;;;;;4977222;28;20057;-35
2023/06/14 02:24:10;;;;;;;3.10;0.98;;;16.40;99.90;;;;;;4977850;28;20136;-35
2023/06/14 02:26:37;;;;;;;3.08;0.90;;;16.40;99.90;;;;;;4975927;28;20519;-35
2023/06/14 02:29:05;;;;;;;3.88;0.90;;;16.30;99.90;;;;;;4981266;28;20053;-35
2023/06/14 02:31:31;;;;;;;1.58;0.65;;;16.30;99.90;;;;;;4977670;28;20515;-35
2023/06/14 02:33:57;;;;;;;3.22;1.00;;;16.30;99.90;;;;;;4976812;28;20046;-35
2023/06/14 02:36:23;;;;;;;5.03;1.20;;;16.20;99.90;;;;;;4979204;28;20042;-35
2023/06/14 02:38:48;;;;;;;6.07;0.85;;;16.20;99.90;;;;;;4982229;28;20061;-35
2023/06/14 02:41:14;;;;;;;2.55;1.02;;;16.20;99.90;;;;;;4976701;28;20042;-35
2023/06/14 02:43:40;;;;;;;2.83;0.90;;;16.10;99.90;;;;;;4982775;28;20164;-35
2023/06/14 02:46:06;;;;;;;5.43;0.80;;;16.10;99.90;;;;;;4980480;28;20054;-35
2023/06/14 02:48:32;;;;;;;1.70;1.00;;;16.10;99.90;;;;;;4980346;28;20104;-35
2023/06/14 02:50:58;;;;;;;3.03;0.82;;;16.10;99.90;;;;;;4980039;28;20447;-35
2023/06/14 02:53:23;;;;;;;1.80;0.70;;;16.00;99.90;;;;;;4981169;28;20086;-35
2023/06/14 02:55:49;;;;;;;4.38;1.05;;;16.00;99.90;;;;;;4980806;28;20046;-35
2023/06/14 02:58:15;;;;;;;4.85;0.95;;;16.00;99.90;;;;;;4980888;28;20062;-35
2023/06/14 03:00:42;;;;;;;4.40;0.98;;;15.90;99.90;;;;;;4965040;28;20512;-35
2023/06/14 03:03:13;;;;;;;2.05;0.68;;;15.90;99.90;;;;;;4981669;28;20077;-34
2023/06/14 03:05:47;;;;;;;2.88;0.93;;;15.90;99.90;;;;;;4981167;28;20093;-35
2023/06/14 03:08:19;;;;;;;5.85;1.08;;;15.80;99.90;;;;;;4974962;28;20097;-39
2023/06/14 03:10:48;;;;;;;1.17;0.60;;;15.80;99.90;;;;;;4967944;28;20118;-34
2023/06/14 03:13:20;;;;;;;3.55;0.82;;;15.80;99.90;;;;;;4967647;28;20051;-34
2023/06/14 03:15:47;;;;;;;5.38;0.93;;;15.80;99.90;;;;;;4965440;28;20564;-35
2023/06/14 03:18:14;;;;;;;5.25;0.90;;;15.80;99.90;;;;;;4964451;28;20134;-35
2023/06/14 03:20:40;;;;;;;2.47;1.00;;;15.80;99.90;;;;;;4962103;28;20448;-34
2023/06/14 03:23:07;;;;;;;1.90;0.73;;;15.80;99.90;;;;;;4962403;28;20070;-35
2023/06/14 03:25:35;;;;;;;3.03;1.25;;;15.70;99.90;;;;;;4964158;28;20488;-35
2023/06/14 03:28:02;;;;;;;2.63;1.05;;;15.70;99.90;;;;;;4947500;28;20054;-35
2023/06/14 03:30:28;;;;;;;5.20;1.10;;;15.70;99.90;;;;;;4967632;28;20063;-34
2023/06/14 03:32:55;;;;;;;3.25;1.13;;;15.70;99.90;;;;;;4965065;28;20575;-35
2023/06/14 03:35:21;;;;;;;4.50;1.10;;;15.70;99.90;;;;;;4964340;28;20065;-35
2023/06/14 03:37:47;;;;;;;2.53;1.02;;;15.70;99.90;;;;;;4962429;28;20046;-34
2023/06/14 03:40:15;;;;;;;2.63;1.10;;;15.70;99.90;;;;;;4941437;28;20050;-34
2023/06/14 03:42:41;;;;;;;13.80;1.10;;;15.70;99.90;;;;;;4956835;28;20089;-35
2023/06/14 03:45:07;;;;;;;2.92;0.90;;;15.70;99.90;;;;;;4958686;28;20054;-35
2023/06/14 03:47:33;;;;;;;4.43;1.00;;;15.70;99.90;;;;;;4961317;28;20050;-35
2023/06/14 03:50:00;;;;;;;2.25;0.70;;;15.70;99.90;;;;;;4961521;28;20190;-35
2023/06/14 03:52:26;;;;;;;2.80;1.00;;;15.70;99.90;;;;;;4963732;28;20660;-34
2023/06/14 03:54:51;;;;;;;6.63;0.93;;;15.70;99.90;;;;;;4953113;28;20057;-34
2023/06/14 03:57:17;;;;;;;2.10;0.70;;;15.70;99.90;;;;;;4960722;28;20456;-34
2023/06/14 03:59:43;;;;;;;2.15;0.82;;;15.70;99.90;;;;;;4964363;28;20119;-35
2023/06/14 04:02:11;;;;;;;1.52;0.93;;;15.70;99.90;;;;;;4963121;28;20097;-42
2023/06/14 04:04:37;;;;;;;4.05;1.13;;;15.70;99.90;;;;;;4966529;28;20047;-43
2023/06/14 04:07:03;;;;;;;5.05;0.93;;;15.80;99.90;;;;;;4960880;28;20043;-34
2023/06/14 04:09:32;;;;;;;4.15;0.95;;;15.80;99.90;;;;;;4973611;28;20695;-35
2023/06/14 04:11:57;;;;;;;3.33;0.82;;;15.80;99.90;;;;;;4978311;28;20054;-35
2023/06/14 04:14:23;;;;;;;1.75;0.90;;;15.80;99.90;;;;;;4982638;28;20416;-35
2023/06/14 04:16:49;;;;;;;5.70;1.33;;;15.80;99.90;;;;;;4983969;28;20078;-35
2023/06/14 04:19:15;;;;;;;3.70;0.98;;;15.80;99.90;;;;;;4984036;28;20459;-34
2023/06/14 04:21:42;;;;;;;3.53;1.00;;;15.80;99.90;;;;;;4980938;28;20062;-35
2023/06/14 04:24:12;;;;;;;5.78;1.05;;;15.90;99.90;;;;;;4962240;28;20129;-35
2023/06/14 04:26:40;;;;;;;1.52;0.80;;;15.90;99.90;;;;;;4984308;28;20129;-37
2023/06/14 04:29:06;;;;;;;3.45;1.20;;;15.90;99.90;;;;;;4983537;28;20046;-35
2023/06/14 04:31:33;;;;;;;3.72;1.17;;;15.90;99.90;;;;;;4982631;28;20054;-34
2023/06/14 04:33:59;;;;;;;4.70;1.10;;;15.90;99.90;;;;;;4978848;28;20064;-34
2023/06/14 04:36:27;;;;;;;3.13;0.88;;;16.00;99.90;;;;;;4987340;28;20061;-34
2023/06/14 04:38:54;;;;;;;4.78;1.23;;;15.90;99.90;;;;;;4980086;28;20050;-34
2023/06/14 04:41:24;;;;;;;2.85;1.00;;;16.00;99.90;;;;;;4987418;28;20471;-34
2023/06/14 04:43:53;;;;;;;4.00;1.10;;;16.00;99.90;;;;;;4982200;28;20046;-34
2023/06/14 04:46:18;;;;;;;2.33;1.10;;;16.10;99.90;;;;;;4985653;28;20102;-34
2023/06/14 04:48:45;;;;;;;2.70;1.10;;;16.10;99.90;;;;;;4986855;28;20050;-35
2023/06/14 04:51:12;;;;;;;4.35;1.13;;;16.20;99.90;;;;;;4988436;28;20518;-35
2023/06/14 04:53:38;;;;;;;3.28;1.10;;;16.20;99.90;;;;;;4967973;28;20085;-35
2023/06/14 04:56:04;;;;;;;4.88;1.45;;;16.20;99.90;;;;;;4987954;28;20081;-35
2023/06/14 04:58:30;;;;;;;3.90;1.38;;;16.30;99.90;;;;;;4986252;28;20073;-35
2023/06/14 05:00:56;;;;;;;2.63;1.15;;;16.30;99.90;;;;;;4980024;28;20054;-35
2023/06/14 05:03:26;;;;;;;2.15;1.00;;;16.30;99.90;;;;;;4985866;28;20054;-36
2023/06/14 05:05:54;;;;;;;4.30;1.10;;;16.40;99.90;;;;;;4982993;28;20134;-35
2023/06/14 05:08:23;;;;;;;2.83;0.98;;;16.40;99.90;;;;;;4986571;28;20507;-34
2023/06/14 05:10:49;;;;;;;4.90;1.80;;;16.50;99.90;;;;;;4987096;28;20117;-35
2023/06/14 05:13:15;;;;;;;2.70;1.00;;;16.50;99.90;;;;;;4983432;28;20054;-35
2023/06/14 05:15:41;;;;;;;6.95;1.10;;;16.60;99.90;;;;;;4985330;28;20058;-36
2023/06/14 05:18:08;;;;;;;3.75;1.00;;;16.70;99.90;;;;;;4982603;28;20462;-35
2023/06/14 05:20:34;;;;;;;6.18;1.45;;;16.80;99.90;;;;;;4986393;28;20050;-35
2023/06/14 05:23:00;;;;;;;2.92;1.17;;;16.80;99.90;;;;;;4978388;28;20105;-35
2023/06/14 05:25:28;;;;;;;5.57;1.13;;;16.90;99.90;;;;;;4983913;28;20133;-35
2023/06/14 05:27:53;;;;;;;4.13;1.10;;;17.00;99.90;;;;;;4983566;28;20440;-35
2023/06/14 05:30:19;;;;;;;3.25;1.30;;;17.00;99.90;;;;;;4984615;28;20058;-35
2023/06/14 05:32:44;;;;;;;3.50;1.25;;;17.10;99.90;;;;;;4973974;28;20141;-35
2023/06/14 05:35:10;;;;;;;3.47;1.40;;;17.20;99.90;;;;;;4979857;28;20069;-35
2023/06/14 05:37:36;;;;;;;2.30;1.00;;;17.30;99.90;;;;;;4980131;28;20423;-35
2023/06/14 05:40:05;;;;;;;4.60;1.10;;;17.40;99.90;;;;;;4981136;28;20050;-35
2023/06/14 05:42:31;;;;;;;4.20;1.38;;;17.50;99.90;;;;;;4978284;28;20800;-33
2023/06/14 05:44:57;;;;;;;5.15;1.20;;;17.60;99.90;;;;;;4976937;28;20050;-33
2023/06/14 05:47:23;;;;;;;3.15;1.40;;;17.70;99.90;;;;;;4977662;28;20050;-33
2023/06/14 05:49:48;;;;;;;2.92;1.65;;;17.80;99.90;;;;;;4982846;28;20191;-33
2023/06/14 05:52:14;;;;;;;3.38;1.30;;;17.90;99.90;;;;;;4977453;28;20046;-33
2023/06/14 05:54:41;;;;;;;8.27;1.27;;;17.90;99.90;;;;;;4976746;28;20057;-33
2023/06/14 05:57:07;;;;;;;2.67;1.20;;;18.00;99.90;;;;;;4974828;28;20062;-33
2023/06/14 05:59:32;;;;;;;2.60;1.10;;;18.10;99.90;;;;;;4981282;28;20058;-36
2023/06/14 06:01:58;;;;;;;5.63;1.85;;;18.20;99.90;;;;;;4969183;28;20042;-36
2023/06/14 06:04:24;;;;;;;3.20;1.15;;;18.30;99.90;;;;;;4975402;28;20050;-36
2023/06/14 06:06:50;;;;;;;2.65;1.15;;;18.40;99.90;;;;;;4972230;28;20283;-33
2023/06/14 06:09:15;;;;;;;6.93;1.45;;;18.50;99.90;;;;;;4976134;28;20072;-33
2023/06/14 06:11:41;;;;;;;2.60;1.10;;;18.60;99.90;;;;;;4956636;28;20677;-34
2023/06/14 06:14:06;;;;;;;3.55;1.45;;;18.70;99.90;;;;;;4975973;28;20782;-34
2023/06/14 06:16:33;;;;;;;3.60;1.20;;;18.80;99.90;;;;;;4975774;28;20046;-34
2023/06/14 06:18:59;;;;;;;3.47;1.30;;;18.90;99.90;;;;;;4980635;28;20054;-34
2023/06/14 06:21:24;;;;;;;4.15;1.27;;;19.00;99.90;;;;;;4985268;28;20176;-35
2023/06/14 06:23:50;;;;;;;2.10;1.20;;;19.00;99.90;;;;;;4984788;28;20178;-34
2023/06/14 06:26:16;;;;;;;3.10;1.20;;;19.10;99.90;;;;;;4985394;28;20038;-34
2023/06/14 06:28:41;;;;;;;2.95;1.20;;;19.20;99.90;;;;;;4983062;28;20073;-34
2023/06/14 06:31:07;;;;;;;4.15;1.30;;;19.30;99.90;;;;;;4982025;28;20076;-34
2023/06/14 06:33:33;;;;;;;5.03;1.48;;;19.30;99.90;;;;;;4983029;28;20385;-34
2023/06/14 06:35:58;;;;;;;2.15;1.02;;;19.50;99.90;;;;;;4982086;28;20050;-35
2023/06/14 06:38:24;;;;;;;3.00;1.08;;;19.50;99.90;;;;;;4976960;28;20066;-34
2023/06/14 06:40:50;;;;;;;2.40;1.15;;;19.60;99.90;;;;;;4979072;28;20172;-35
2023/06/14 06:43:17;;;;;;;3.45;1.23;;;19.70;99.90;;;;;;4982320;28;20055;-35
2023/06/14 06:45:42;;;;;;;3.78;1.08;;;19.80;99.90;;;;;;4979420;28;20145;-36
2023/06/14 06:48:10;;;;;;;1.58;0.90;;;20.00;99.90;;;;;;4979109;28;20193;-36
2023/06/14 06:50:36;;;;;;;2.75;0.98;;;20.10;99.90;;;;;;4981022;28;20057;-35
2023/06/14 06:53:02;;;;;;;1.70;0.85;;;20.20;99.90;;;;;;4982990;28;20140;-35
2023/06/14 06:55:28;;;;;;;10.13;1.20;;;20.30;99.90;;;;;;4986773;28;20411;-35
2023/06/14 06:57:53;;;;;;;2.78;0.90;;;20.40;99.90;;;;;;4984285;28;20153;-35
2023/06/14 07:00:20;;;;;;;3.83;0.90;;;20.40;99.90;;;;;;4985007;28;20105;-35
2023/06/14 07:02:46;;;;;;;1.95;0.88;;;20.50;99.90;;;;;;4980425;28;20134;-35
2023/06/14 07:05:11;;;;;;;2.10;0.80;;;20.60;99.90;;;;;;4978434;28;20145;-35
2023/06/14 07:07:37;;;;;;;2.90;1.23;;;20.60;99.90;;;;;;4983851;28;20150;-38
2023/06/14 07:10:04;;;;;;;3.45;0.95;;;20.70;99.90;;;;;;4978027;28;21217;-36
2023/06/14 07:12:33;;;;;;;5.35;1.00;;;20.80;99.90;;;;;;4977355;28;20092;-36
2023/06/14 07:15:00;;;;;;;2.65;0.98;;;20.90;99.90;;;;;;4978381;28;20076;-36
2023/06/14 07:17:26;;;;;;;2.97;0.85;;;21.00;99.90;;;;;;4980750;28;20066;-36
2023/06/14 07:19:51;;;;;;;2.30;0.90;;;21.10;99.90;;;;;;4978437;28;20054;-36
2023/06/14 07:22:17;;;;;;;2.42;0.90;;;21.20;99.90;;;;;;4980336;28;20066;-36
2023/06/14 07:24:43;;;;;;;2.50;1.00;;;21.40;99.90;;;;;;4981881;28;20058;-36
2023/06/14 07:27:09;;;;;;;1.83;0.93;;;21.50;99.90;;;;;;4983007;28;20145;-36
2023/06/14 07:29:34;;;;;;;4.60;1.38;;;21.60;99.90;;;;;;4985914;28;20054;-36
2023/06/14 07:32:00;;;;;;;1.98;1.00;;;21.60;99.90;;;;;;4984434;28;20042;-36
2023/06/14 07:34:27;;;;;;;5.57;1.10;;;21.70;99.90;;;;;;4981357;28;20081;-36
2023/06/14 07:36:54;;;;;;;6.35;1.23;;;21.70;99.90;;;;;;4979532;28;20050;-36
2023/06/14 07:39:19;;;;;;;4.13;1.20;;;21.80;99.90;;;;;;4981469;28;20054;-41
2023/06/14 07:41:45;;;;;;;2.58;1.10;;;21.90;99.90;;;;;;4966957;28;20275;-36
2023/06/14 07:44:12;;;;;;;1.52;0.93;;;21.90;99.90;;;;;;4984611;28;20050;-36
2023/06/14 07:46:38;;;;;;;3.70;1.35;;;22.00;99.90;;;;;;4983227;28;20539;-36
2023/06/14 07:49:03;;;;;;;4.25;1.08;;;22.10;99.90;;;;;;4973622;28;20516;-36
2023/06/14 07:51:29;;;;;;;2.47;0.90;;;22.10;99.90;;;;;;4964753;28;20069;-36
2023/06/14 07:53:56;;;;;;;2.47;1.13;;;22.20;99.90;;;;;;4979061;28;20046;-36
2023/06/14 07:56:21;;;;;;;1.85;1.10;;;22.30;99.90;;;;;;4984691;28;20054;-36
2023/06/14 07:58:48;;;;;;;3.63;1.08;;;22.40;99.90;;;;;;4966366;28;20455;-36
2023/06/14 08:01:13;;;;;;;4.70;1.00;;;22.50;99.90;;;;;;4985164;28;20058;-36
2023/06/14 08:03:39;;;;;;;2.72;0.95;;;22.60;99.90;;;;;;4985797;28;20066;-36
2023/06/14 08:06:06;;;;;;;2.83;0.80;;;22.70;99.90;;;;;;4986323;28;20054;-36
2023/06/14 08:08:32;;;;;;;2.33;1.05;;;22.80;99.90;;;;;;4963212;28;20519;-36
2023/06/14 08:10:57;;;;;;;2.75;1.00;;;22.80;99.90;;;;;;4973575;28;20046;-36
2023/06/14 08:13:23;;;;;;;3.55;1.20;;;22.90;99.90;;;;;;4984676;28;20054;-36
2023/06/14 08:15:49;;;;;;;2.38;1.02;;;23.00;99.90;;;;;;4979543;28;20108;-36
2023/06/14 08:18:14;;;;;;;2.88;1.00;;;23.00;99.90;;;;;;4973453;28;20050;-36
2023/06/14 08:20:40;;;;;;;2.30;1.00;;;23.10;99.90;;;;;;4975935;28;20051;-36
2023/06/14 08:23:06;;;;;;;2.00;0.80;;;23.10;99.90;;;;;;4975651;28;20047;-36
2023/06/14 08:25:31;;;;;;;3.90;1.10;;;23.20;99.90;;;;;;4984059;28;20046;-36
2023/06/14 08:27:57;;;;;;;4.30;1.00;;;23.30;99.90;;;;;;4974644;28;20607;-36
2023/06/14 08:30:22;;;;;;;2.17;1.08;;;23.40;99.90;;;;;;4977040;28;20069;-36
2023/06/14 08:32:48;;;;;;;2.20;1.15;;;23.50;99.90;;;;;;4977694;28;20062;-36
2023/06/14 08:35:14;;;;;;;3.30;0.88;;;23.60;99.90;;;;;;4968421;28;20455;-36
2023/06/14 08:37:41;;;;;;;2.53;1.00;;;23.60;99.90;;;;;;4983434;28;20070;-36
2023/06/14 08:40:29;;;;;;;2.95;1.00;;;23.60;99.90;;;;;;4983981;28;20404;-36
2023/06/14 08:42:55;;;;;;;3.55;1.10;;;23.70;99.90;;;;;;4985737;28;20149;-36
2023/06/14 08:45:23;;;;;;;2.35;0.90;;;23.80;99.90;;;;;;4981702;28;20138;-37
2023/06/14 08:47:57;;;;;;;2.60;0.80;;;23.80;99.90;;;;;;4982947;28;20050;-37
2023/06/14 08:50:29;;;;;;;1.30;0.80;;;23.90;99.90;;;;;;4981555;28;20520;-36
2023/06/14 08:53:00;;;;;;;3.17;0.80;;;23.90;99.90;;;;;;4979642;28;20054;-35
2023/06/14 08:55:27;;;;;;;4.20;0.75;;;23.90;99.90;;;;;;4982634;28;20055;-35
2023/06/14 08:57:57;;;;;;;1.73;0.80;;;23.90;99.90;;;;;;4983243;28;20088;-35
2023/06/14 09:00:24;;;;;;;2.22;0.68;;;23.90;99.90;;;;;;4988938;28;20053;-35
2023/06/14 09:02:55;;;;;;;2.33;0.60;;;24.00;99.90;;;;;;4981012;28;20054;-35
2023/06/14 09:05:25;;;;;;;1.75;0.70;;;24.00;99.90;;;;;;4980471;28;20054;-35
2023/06/14 09:07:52;;;;;;;1.33;0.73;;;24.00;99.90;;;;;;4976361;28;20042;-36
2023/06/14 09:10:18;;;;;;;4.75;0.90;;;24.10;99.90;;;;;;4977625;28;20085;-36
2023/06/14 09:12:43;;;;;;;1.15;0.70;;;24.20;99.90;;;;;;4988100;28;20137;-36
2023/06/14 09:15:10;;;;;;;4.13;0.73;;;24.30;99.90;;;;;;4970121;28;20105;-36
2023/06/14 09:17:36;;;;;;;2.28;0.90;;;24.40;99.90;;;;;;4986894;28;20046;-37
2023/06/14 09:20:08;;;;;;;3.38;0.68;;;24.40;99.90;;;;;;4983656;28;20396;-36
2023/06/14 09:22:34;;;;;;;;;;;24.40;99.90;;;;;;4970114;28;20085;-35
2023/06/14 09:25:00;;;;;;;2.25;0.90;;;24.50;99.90;;;;;;4977119;28;19976;-36
2023/06/14 09:27:29;;;;;;;1.92;0.70;;;24.50;99.90;;;;;;4986338;28;20065;-36
2023/06/14 09:29:55;;;;;;;2.63;0.88;;;24.70;99.90;;;;;;4985307;28;20050;-35
2023/06/14 09:32:24;;;;;;;1.38;0.90;;;24.80;99.90;;;;;;4980122;28;20167;-35
2023/06/14 09:34:50;;;;;;;2.25;1.02;;;25.00;99.90;;;;;;4984294;28;20121;-35
2023/06/14 09:37:32;;;;;;;1.38;0.98;;;25.10;99.90;;;;;;4983394;28;20050;-35
2023/06/14 09:39:59;;;;;;;1.48;0.80;;;25.20;99.90;;;;;;4983340;28;20554;-35
2023/06/14 09:42:25;;;;;;;3.15;0.77;;;25.10;99.90;;;;;;4984322;28;20057;-35
2023/06/14 09:44:53;;;;;;;2.35;1.00;;;25.10;99.90;;;;;;4983291;28;20140;-35
2023/06/14 09:47:19;;;;;;;3.72;0.80;;;25.10;99.90;;;;;;4983987;28;20507;-35
2023/06/14 09:49:46;;;;;;;1.55;0.77;;;25.10;99.90;;;;;;4971211;28;20141;-35
2023/06/14 09:52:15;;;;;;;2.58;0.95;;;25.20;99.90;;;;;;4970106;28;20518;-34
2023/06/14 09:54:46;;;;;;;4.22;0.77;;;25.30;99.90;;;;;;4985691;28;20057;-35
2023/06/14 09:57:17;;;;;;;1.00;0.73;;;25.40;99.90;;;;;;4985317;28;20058;-35
2023/06/14 09:59:45;;;;;;;3.03;0.70;;;25.50;99.90;;;;;;4979519;28;20046;-39
2023/06/14 10:02:37;;;;;;;2.42;0.80;;;25.60;99.90;;;;;;4981818;28;20420;-35
2023/06/14 10:05:06;;;;;;;2.88;1.00;;;25.70;99.90;;;;;;4978740;28;20041;-35
2023/06/14 10:07:41;;;;;;;1.15;0.77;;;25.70;99.90;;;;;;4985220;28;20073;-43
2023/06/14 10:10:07;;;;;;;2.22;0.77;;;25.80;99.90;;;;;;4978493;28;20058;-36
2023/06/14 10:12:33;;;;;;;1.85;0.90;;;25.90;99.90;;;;;;4980225;28;20664;-36
2023/06/14 10:15:01;;;;;;;5.30;1.60;;;25.90;99.90;;;;;;4975523;28;20133;-36
2023/06/14 10:17:48;;;;;;;1.15;0.65;;;25.90;99.90;;;;;;4982487;28;20089;-35
2023/06/14 10:20:33;;;;;;;2.70;0.80;;;25.90;99.90;;;;;;4967246;28;20054;-37
2023/06/14 10:23:17;;;;;;;4.72;0.70;;;25.90;99.90;;;;;;4969120;28;20050;-35
2023/06/14 10:25:43;;;;;;;1.85;0.50;;;25.90;99.90;;;;;;4975867;28;20527;-36
2023/06/14 10:28:19;;;;;;;3.35;0.68;;;25.80;99.90;;;;;;4978813;28;20051;-37
2023/06/14 10:31:06;;;;;;;2.75;0.60;;;25.90;99.90;;;;;;4980026;28;20113;-37
2023/06/14 10:33:34;;;;;;;4.03;0.60;;;25.90;99.90;;;;;;4977027;28;20058;-36
2023/06/14 10:36:22;;;;;;;3.22;0.60;;;25.90;99.90;;;;;;4977323;28;20058;-36
2023/06/14 10:39:08;;;;;;;2.50;0.60;;;26.00;99.90;;;;;;4979308;28;20057;-36
2023/06/14 10:41:38;;;;;;;1.10;0.57;;;26.00;99.90;;;;;;4978394;28;20513;-35
2023/06/14 10:44:13;;;;;;;1.55;0.60;;;26.10;99.90;;;;;;4981542;28;20066;-36
2023/06/14 10:46:40;;;;;;;2.15;0.70;;;26.10;99.90;;;;;;4973033;28;20543;-35
2023/06/14 10:49:06;;;;;;;4.00;1.20;;;26.20;99.90;;;;;;4983016;28;20054;-35
2023/06/14 10:51:48;;;;;;;1.75;0.60;;;26.40;99.90;;;;;;4977543;28;20089;-36
2023/06/14 10:54:14;;;;;;;;;;;26.50;99.90;;;;;;4971154;28;20407;-35
2023/06/14 10:56:59;;;;;;;1.63;0.80;;;26.60;99.90;;;;;;4968050;28;19922;-36
2023/06/14 10:59:25;;;;;;;4.78;0.70;;;26.70;99.90;;;;;;4978205;28;20415;-36
2023/06/14 11:02:25;;;;;;;2.50;0.82;;;26.80;99.90;;;;;;4977285;28;20065;-36
2023/06/14 11:04:52;;;;;;;3.25;0.75;;;26.80;99.90;;;;;;4972553;28;20487;-35
2023/06/14 11:07:45;;;;;;;1.20;0.60;;;27.00;99.90;;;;;;4984314;28;20065;-35
2023/06/14 11:10:36;;;;;;;1.33;0.60;;;27.00;99.90;;;;;;4975698;28;20097;-36
2023/06/14 11:13:02;;;;;;;5.75;0.75;;;27.00;99.90;;;;;;4979945;28;20046;-36
2023/06/14 11:15:32;;;;;;;1.30;0.70;;;27.20;99.90;;;;;;4988234;28;20038;-36
2023/06/14 11:18:00;;;;;;;3.03;0.80;;;27.30;99.90;;;;;;4987213;28;20496;-36
2023/06/14 11:20:26;;;;;;;2.28;0.60;;;27.20;99.90;;;;;;4986590;28;20058;-35
2023/06/14 11:22:53;;;;;;;2.30;0.80;;;27.20;99.90;;;;;;4978746;28;20054;-35
2023/06/14 11:25:19;;;;;;;1.20;0.65;;;27.30;99.90;;;;;;4978875;28;20058;-35
2023/06/14 11:27:45;;;;;;;2.38;0.80;;;27.30;99.90;;;;;;4982548;28;20093;-35
2023/06/14 11:30:13;;;;;;;1.38;0.90;;;27.30;99.90;;;;;;4979671;28;20062;-35
2023/06/14 11:32:39;;;;;;;1.85;0.90;;;27.30;99.90;;;;;;4984281;28;20054;-35
2023/06/14 11:35:05;;;;;;;1.90;1.00;;;27.30;99.90;;;;;;4980027;28;20069;-35
2023/06/14 11:37:34;;;;;;;2.45;1.13;;;27.30;99.90;;;;;;4983371;28;20062;-35
2023/06/14 11:40:11;;;;;;;3.25;1.00;;;27.40;99.90;;;;;;4983342;28;20082;-35
2023/06/14 11:42:38;;;;;;;4.05;1.20;;;27.60;99.90;;;;;;4982846;28;20085;-35
2023/06/14 11:45:07;;;;;;;3.45;1.30;;;27.70;99.90;;;;;;4974944;28;20096;-35
2023/06/14 11:47:33;;;;;;;1.60;1.25;;;27.60;99.90;;;;;;4962266;28;20046;-35
2023/06/14 11:50:00;;;;;;;3.92;1.10;;;27.50;99.90;;;;;;4980747;28;20190;-35
2023/06/14 11:52:26;;;;;;;3.33;0.90;;;27.60;99.90;;;;;;4971893;28;20047;-35
2023/06/14 11:54:52;;;;;;;3.53;0.90;;;27.60;99.90;;;;;;4973488;28;20415;-35
2023/06/14 11:57:19;;;;;;;5.80;1.08;;;27.70;99.90;;;;;;4979265;28;20189;-35
2023/06/14 11:59:46;;;;;;;1.50;0.77;;;27.80;99.90;;;;;;4980736;28;20113;-35
2023/06/14 12:02:15;;;;;;;4.20;1.05;;;27.90;99.90;;;;;;4954424;28;20062;-35
2023/06/14 12:04:42;;;;;;;2.90;0.90;;;28.10;99.90;;;;;;4974808;28;20108;-35
2023/06/14 12:07:15;;;;;;;2.53;1.00;;;28.10;99.90;;;;;;4978020;28;20054;-35
2023/06/14 12:10:00;;;;;;;1.42;1.00;;;28.20;99.90;;;;;;4982239;28;20077;-35
2023/06/14 12:12:26;;;;;;;1.55;0.80;;;28.30;99.90;;;;;;4970533;28;20058;-35
2023/06/14 12:14:53;;;;;;;2.33;1.00;;;28.30;99.90;;;;;;4984453;28;20120;-35
2023/06/14 12:17:19;;;;;;;1.65;0.98;;;28.40;99.90;;;;;;4981280;28;20046;-35
2023/06/14 12:19:46;;;;;;;1.65;1.20;;;28.50;99.90;;;;;;4978139;28;20507;-35
2023/06/14 12:22:13;;;;;;;2.65;1.13;;;28.40;99.90;;;;;;4979111;28;20138;-35
2023/06/14 12:24:39;;;;;;;1.92;1.50;;;28.40;99.90;;;;;;4983981;28;20054;-34
2023/06/14 12:27:05;;;;;;;3.58;1.48;;;28.40;99.90;;;;;;4987498;28;20049;-35
2023/06/14 12:29:32;;;;;;;1.83;1.50;;;28.40;99.90;;;;;;4979363;28;20185;-34
2023/06/14 12:31:58;;;;;;;4.93;1.30;;;28.60;99.90;;;;;;4983950;28;20101;-35
2023/06/14 12:34:24;;;;;;;2.90;1.60;;;28.70;99.90;;;;;;4975849;28;20044;-35
2023/06/14 12:36:54;;;;;;;2.13;1.60;;;28.70;99.90;;;;;;4984730;28;20562;-34
2023/06/14 12:39:20;;;;;;;3.65;1.55;;;28.70;99.90;;;;;;4980382;28;20146;-35
2023/06/14 12:41:46;;;;;;;2.13;1.45;;;28.60;99.90;;;;;;4981935;28;20407;-35
2023/06/14 12:44:13;;;;;;;4.18;1.70;;;28.70;99.90;;;;;;4979555;28;20464;-35
2023/06/14 12:46:40;;;;;;;3.38;1.80;;;28.90;99.90;;;;;;4980583;28;20085;-36
2023/06/14 12:49:07;;;;;;;2.70;1.52;;;29.00;99.90;;;;;;4979498;28;20170;-36
2023/06/14 12:51:33;;;;;;;2.10;1.90;;;29.00;99.90;;;;;;4984046;28;20058;-36